createdAt,value
2019-04-13T00:00:44.431Z,4.44
2019-04-13T00:01:44.406Z,4.44
2019-04-13T00:02:44.386Z,4.42
2019-04-13T00:03:44.370Z,4.44
2019-04-13T00:04:44.339Z,4.45
2019-04-13T00:05:44.316Z,4.41
2019-04-13T00:06:44.291Z,4.37
2019-04-13T00:07:44.267Z,4.30
2019-04-13T00:08:44.241Z,4.34
2019-04-13T00:09:44.220Z,4.32
2019-04-13T00:10:44.197Z,4.36
2019-04-13T00:11:44.171Z,4.27
2019-04-13T00:12:44.148Z,4.36
2019-04-13T00:13:44.125Z,4.29
2019-04-13T00:14:44.106Z,4.26
2019-04-13T00:15:44.079Z,4.30
2019-04-13T00:16:44.064Z,4.44
2019-04-13T00:17:44.033Z,4.41
2019-04-13T00:18:44.010Z,4.29
2019-04-13T00:19:43.988Z,4.26
2019-04-13T00:20:43.967Z,4.27
2019-04-13T00:21:43.942Z,4.30
2019-04-13T00:22:43.916Z,4.32
2019-04-13T00:23:43.899Z,4.30
2019-04-13T00:24:43.872Z,4.36
2019-04-13T00:25:43.847Z,4.37
2019-04-13T00:26:43.824Z,4.32
2019-04-13T00:27:43.797Z,4.33
2019-04-13T00:28:43.775Z,4.36
2019-04-13T00:29:43.751Z,4.29
2019-04-13T00:30:43.729Z,4.33
2019-04-13T00:31:43.708Z,4.29
2019-04-13T00:32:43.686Z,4.32
2019-04-13T00:33:43.663Z,4.33
2019-04-13T00:34:43.634Z,4.30
2019-04-13T00:35:43.615Z,4.29
2019-04-13T00:36:43.593Z,4.22
2019-04-13T00:37:43.568Z,4.18
2019-04-13T00:38:43.551Z,4.30
2019-04-13T00:39:43.523Z,4.24
2019-04-13T00:40:43.500Z,4.15
2019-04-13T00:41:43.474Z,4.27
2019-04-13T00:42:43.454Z,4.14
2019-04-13T00:43:43.427Z,4.24
2019-04-13T00:44:43.405Z,4.27
2019-04-13T00:45:43.378Z,4.26
2019-04-13T00:46:43.358Z,4.23
2019-04-13T00:47:43.334Z,4.23
2019-04-13T00:48:43.311Z,4.18
2019-04-13T00:49:43.290Z,4.18
2019-04-13T00:50:43.262Z,4.15
2019-04-13T00:51:43.242Z,4.16
2019-04-13T00:52:43.257Z,4.18
2019-04-13T00:53:43.197Z,4.22
2019-04-13T00:54:43.172Z,4.16
2019-04-13T00:55:43.150Z,4.14
2019-04-13T00:56:43.128Z,4.16
2019-04-13T00:57:43.098Z,4.12
2019-04-13T00:58:43.076Z,4.12
2019-04-13T00:59:43.052Z,4.06
2019-04-13T01:00:43.026Z,4.05
2019-04-13T01:01:43.006Z,4.04
2019-04-13T01:02:42.983Z,4.06
2019-04-13T01:03:42.956Z,4.04
2019-04-13T01:04:52.971Z,4.06
2019-04-13T01:05:42.911Z,4.04
2019-04-13T01:06:42.888Z,3.98
2019-04-13T01:07:42.863Z,4.04
2019-04-13T01:08:42.843Z,4.02
2019-04-13T01:09:42.820Z,4.00
2019-04-13T01:10:42.795Z,4.05
2019-04-13T01:11:42.772Z,3.94
2019-04-13T01:12:42.754Z,4.00
2019-04-13T01:13:42.726Z,4.02
2019-04-13T01:14:42.700Z,3.98
2019-04-13T01:15:42.676Z,3.93
2019-04-13T01:16:42.673Z,3.97
2019-04-13T01:17:42.634Z,3.91
2019-04-13T01:18:42.611Z,3.98
2019-04-13T01:19:42.582Z,4.00
2019-04-13T01:20:42.561Z,4.02
2019-04-13T01:21:42.542Z,3.98
2019-04-13T01:22:42.515Z,3.97
2019-04-13T01:23:42.492Z,3.94
2019-04-13T01:24:42.471Z,3.96
2019-04-13T01:25:42.450Z,3.97
2019-04-13T01:26:42.421Z,3.90
2019-04-13T01:27:42.398Z,3.88
2019-04-13T01:28:42.377Z,3.94
2019-04-13T01:29:42.350Z,3.84
2019-04-13T01:30:42.327Z,3.90
2019-04-13T01:31:42.301Z,3.93
2019-04-13T01:32:42.279Z,3.90
2019-04-13T01:33:42.265Z,3.88
2019-04-13T01:34:42.236Z,3.94
2019-04-13T01:35:42.212Z,3.91
2019-04-13T01:36:42.189Z,3.90
2019-04-13T01:37:42.163Z,3.83
2019-04-13T01:38:42.143Z,3.88
2019-04-13T01:39:42.113Z,3.79
2019-04-13T01:40:42.098Z,3.79
2019-04-13T01:41:42.066Z,3.83
2019-04-13T01:42:42.053Z,3.79
2019-04-13T01:43:42.032Z,3.94
2019-04-13T01:44:42.001Z,3.78
2019-04-13T01:45:41.973Z,3.79
2019-04-13T01:46:41.960Z,3.79
2019-04-13T01:47:41.927Z,3.88
2019-04-13T01:48:41.907Z,3.78
2019-04-13T01:49:41.885Z,3.86
2019-04-13T01:50:41.857Z,3.80
2019-04-13T01:51:41.834Z,3.91
2019-04-13T01:52:41.814Z,3.78
2019-04-13T01:53:41.793Z,3.80
2019-04-13T01:54:41.762Z,3.86
2019-04-13T01:55:41.741Z,3.93
2019-04-13T01:56:41.717Z,3.83
2019-04-13T01:57:41.694Z,3.87
2019-04-13T01:58:41.671Z,3.96
2019-04-13T01:59:41.648Z,3.87
2019-04-13T02:00:41.625Z,3.91
2019-04-13T02:01:41.602Z,3.86
2019-04-13T02:02:41.579Z,3.79
2019-04-13T02:03:41.551Z,3.94
2019-04-13T02:04:41.529Z,3.88
2019-04-13T02:05:41.514Z,3.86
2019-04-13T02:06:41.481Z,3.79
2019-04-13T02:07:41.456Z,3.93
2019-04-13T02:08:41.435Z,3.88
2019-04-13T02:09:41.413Z,3.94
2019-04-13T02:10:41.393Z,3.91
2019-04-13T02:11:41.375Z,3.91
2019-04-13T02:12:41.339Z,3.87
2019-04-13T02:13:41.317Z,3.94
2019-04-13T02:14:41.297Z,3.96
2019-04-13T02:15:41.269Z,3.93
2019-04-13T02:16:41.246Z,3.94
2019-04-13T02:17:41.227Z,3.96
2019-04-13T02:18:41.199Z,3.91
2019-04-13T02:19:41.179Z,3.79
2019-04-13T02:20:41.155Z,3.94
2019-04-13T02:21:41.133Z,3.90
2019-04-13T02:22:41.108Z,3.88
2019-04-13T02:23:41.085Z,3.78
2019-04-13T02:24:41.063Z,3.94
2019-04-13T02:25:41.034Z,3.91
2019-04-13T02:26:41.021Z,3.86
2019-04-13T02:27:40.991Z,3.86
2019-04-13T02:28:40.966Z,3.80
2019-04-13T02:29:40.946Z,3.84
2019-04-13T02:30:40.933Z,3.76
2019-04-13T02:31:40.905Z,3.87
2019-04-13T02:32:40.872Z,3.93
2019-04-13T02:33:40.866Z,3.97
2019-04-13T02:34:40.823Z,3.83
2019-04-13T02:35:40.803Z,3.86
2019-04-13T02:36:40.778Z,3.79
2019-04-13T02:37:40.754Z,3.88
2019-04-13T02:38:40.727Z,3.80
2019-04-13T02:39:40.710Z,3.78
2019-04-13T02:40:40.687Z,3.80
2019-04-13T02:41:40.666Z,3.76
2019-04-13T02:42:40.638Z,3.84
2019-04-13T02:43:40.616Z,3.83
2019-04-13T02:44:40.594Z,3.75
2019-04-13T02:45:40.565Z,3.87
2019-04-13T02:46:40.540Z,3.91
2019-04-13T02:47:40.521Z,3.90
2019-04-13T02:48:40.500Z,3.83
2019-04-13T02:49:40.472Z,3.93
2019-04-13T02:50:40.450Z,3.80
2019-04-13T02:51:40.426Z,3.80
2019-04-13T02:52:40.404Z,3.91
2019-04-13T02:53:40.379Z,3.84
2019-04-13T02:54:40.359Z,3.76
2019-04-13T02:55:40.330Z,3.76
2019-04-13T02:56:40.306Z,3.83
2019-04-13T02:57:40.285Z,3.79
2019-04-13T02:58:40.260Z,3.83
2019-04-13T02:59:40.243Z,3.86
2019-04-13T03:00:40.251Z,3.79
2019-04-13T03:01:40.190Z,3.83
2019-04-13T03:02:40.173Z,3.80
2019-04-13T03:03:40.142Z,3.83
2019-04-13T03:04:40.123Z,3.79
2019-04-13T03:05:46.752Z,3.76
2019-04-13T03:06:40.080Z,3.78
2019-04-13T03:07:40.050Z,3.84
2019-04-13T03:08:40.026Z,3.78
2019-04-13T03:09:40.000Z,3.79
2019-04-13T03:10:39.983Z,3.79
2019-04-13T03:11:39.957Z,3.80
2019-04-13T03:12:39.931Z,3.80
2019-04-13T03:13:39.911Z,3.79
2019-04-13T03:14:39.884Z,3.75
2019-04-13T03:15:39.856Z,3.79
2019-04-13T03:16:39.836Z,3.79
2019-04-13T03:17:39.815Z,3.78
2019-04-13T03:18:39.792Z,3.79
2019-04-13T03:19:39.766Z,3.80
2019-04-13T03:20:39.739Z,3.87
2019-04-13T03:21:39.724Z,3.79
2019-04-13T03:22:39.698Z,3.79
2019-04-13T03:23:39.674Z,3.86
2019-04-13T03:24:39.654Z,3.91
2019-04-13T03:25:39.624Z,3.87
2019-04-13T03:26:39.603Z,3.86
2019-04-13T03:27:39.578Z,3.90
2019-04-13T03:28:39.555Z,3.87
2019-04-13T03:29:39.540Z,3.86
2019-04-13T03:30:39.518Z,3.88
2019-04-13T03:31:39.482Z,3.90
2019-04-13T03:32:39.468Z,3.83
2019-04-13T03:33:39.439Z,3.84
2019-04-13T03:34:39.414Z,3.86
2019-04-13T03:35:39.392Z,3.83
2019-04-13T03:36:39.362Z,3.87
2019-04-13T03:37:39.337Z,3.84
2019-04-13T03:38:39.317Z,3.84
2019-04-13T03:39:39.298Z,3.84
2019-04-13T03:40:39.270Z,3.87
2019-04-13T03:41:39.246Z,3.79
2019-04-13T03:42:39.220Z,3.84
2019-04-13T03:43:39.196Z,3.87
2019-04-13T03:44:39.179Z,3.87
2019-04-13T03:45:39.153Z,3.88
2019-04-13T03:46:39.131Z,3.87
2019-04-13T03:47:39.119Z,3.90
2019-04-13T03:48:39.082Z,3.94
2019-04-13T03:49:39.056Z,3.79
2019-04-13T03:50:39.036Z,3.73
2019-04-13T03:51:39.021Z,3.79
2019-04-13T03:52:38.987Z,3.79
2019-04-13T03:53:38.967Z,3.86
2019-04-13T03:54:38.941Z,3.93
2019-04-13T03:55:38.915Z,3.93
2019-04-13T03:56:38.896Z,3.78
2019-04-13T03:57:38.871Z,3.93
2019-04-13T03:58:38.843Z,3.80
2019-04-13T03:59:38.822Z,3.78
2019-04-13T04:00:38.801Z,3.91
2019-04-13T04:01:38.779Z,3.93
2019-04-13T04:02:38.754Z,3.90
2019-04-13T04:03:38.731Z,3.80
2019-04-13T04:04:38.703Z,3.90
2019-04-13T04:05:38.685Z,3.83
2019-04-13T04:06:38.659Z,3.79
2019-04-13T04:07:38.633Z,3.93
2019-04-13T04:08:38.611Z,3.87
2019-04-13T04:09:38.588Z,3.90
2019-04-13T04:10:38.559Z,3.91
2019-04-13T04:11:38.536Z,3.93
2019-04-13T04:12:38.517Z,3.90
2019-04-13T04:13:38.489Z,3.93
2019-04-13T04:14:38.467Z,3.87
2019-04-13T04:15:38.445Z,3.96
2019-04-13T04:16:38.418Z,3.88
2019-04-13T04:17:38.395Z,3.90
2019-04-13T04:18:38.374Z,3.94
2019-04-13T04:19:38.355Z,3.94
2019-04-13T04:20:38.330Z,3.96
2019-04-13T04:21:38.303Z,3.98
2019-04-13T04:22:38.283Z,3.87
2019-04-13T04:23:38.253Z,3.90
2019-04-13T04:24:38.229Z,3.96
2019-04-13T04:25:38.209Z,3.96
2019-04-13T04:26:38.183Z,3.97
2019-04-13T04:27:38.163Z,3.97
2019-04-13T04:28:38.135Z,4.02
2019-04-13T04:29:38.115Z,4.05
2019-04-13T04:30:38.093Z,3.98
2019-04-13T04:31:38.071Z,4.02
2019-04-13T04:32:38.043Z,4.08
2019-04-13T04:33:38.019Z,4.00
2019-04-13T04:34:37.993Z,4.00
2019-04-13T04:35:37.973Z,4.00
2019-04-13T04:36:37.951Z,3.94
2019-04-13T04:37:37.927Z,3.94
2019-04-13T04:38:37.903Z,4.00
2019-04-13T04:39:37.882Z,3.97
2019-04-13T04:40:37.855Z,3.97
2019-04-13T04:41:37.829Z,4.00
2019-04-13T04:42:37.812Z,4.00
2019-04-13T04:43:37.785Z,3.98
2019-04-13T04:44:37.759Z,3.97
2019-04-13T04:45:37.745Z,3.97
2019-04-13T04:46:37.720Z,3.93
2019-04-13T04:47:37.694Z,4.00
2019-04-13T04:48:37.669Z,3.96
2019-04-13T04:49:37.642Z,3.98
2019-04-13T04:50:37.622Z,4.05
2019-04-13T04:51:37.596Z,3.93
2019-04-13T04:52:37.571Z,3.96
2019-04-13T04:53:37.545Z,3.97
2019-04-13T04:54:37.522Z,4.04
2019-04-13T04:55:37.515Z,4.04
2019-04-13T04:56:37.479Z,4.09
2019-04-13T04:57:37.460Z,4.05
2019-04-13T04:58:37.427Z,4.06
2019-04-13T04:59:37.410Z,4.05
2019-04-13T05:00:37.380Z,4.08
2019-04-13T05:01:37.356Z,4.08
2019-04-13T05:02:37.336Z,4.05
2019-04-13T05:03:37.349Z,4.06
2019-04-13T05:04:37.286Z,4.05
2019-04-13T05:05:37.263Z,4.11
2019-04-13T05:06:37.243Z,4.14
2019-04-13T05:07:37.223Z,4.12
2019-04-13T05:08:37.196Z,4.06
2019-04-13T05:09:37.169Z,4.04
2019-04-13T05:10:37.144Z,4.11
2019-04-13T05:11:37.122Z,4.06
2019-04-13T05:12:37.108Z,4.08
2019-04-13T05:13:37.073Z,4.11
2019-04-13T05:14:37.048Z,4.12
2019-04-13T05:15:37.031Z,4.08
2019-04-13T05:16:37.007Z,4.08
2019-04-13T05:17:36.983Z,4.05
2019-04-13T05:18:36.956Z,4.08
2019-04-13T05:19:36.938Z,4.05
2019-04-13T05:20:36.911Z,4.05
2019-04-13T05:21:36.888Z,4.11
2019-04-13T05:22:36.864Z,4.11
2019-04-13T05:23:36.853Z,4.09
2019-04-13T05:24:36.825Z,4.08
2019-04-13T05:25:36.794Z,4.15
2019-04-13T05:26:36.768Z,4.12
2019-04-13T05:27:36.747Z,4.15
2019-04-13T05:28:36.725Z,4.22
2019-04-13T05:29:36.699Z,4.20
2019-04-13T05:30:36.680Z,4.30
2019-04-13T05:31:36.656Z,4.26
2019-04-13T05:32:36.635Z,4.27
2019-04-13T05:33:36.604Z,4.27
2019-04-13T05:34:36.585Z,4.32
2019-04-13T05:35:36.558Z,4.20
2019-04-13T05:36:47.198Z,4.29
2019-04-13T05:37:36.512Z,4.22
2019-04-13T05:38:36.488Z,4.20
2019-04-13T05:39:36.467Z,4.24
2019-04-13T05:40:36.441Z,4.18
2019-04-13T05:41:36.411Z,4.15
2019-04-13T05:42:36.392Z,4.24
2019-04-13T05:43:36.370Z,4.24
2019-04-13T05:44:36.346Z,4.34
2019-04-13T05:45:36.715Z,4.29
2019-04-13T05:46:36.304Z,4.24
2019-04-13T05:47:36.277Z,4.29
2019-04-13T05:48:36.252Z,4.44
2019-04-13T05:49:36.230Z,4.41
2019-04-13T05:50:36.203Z,4.47
2019-04-13T05:51:36.182Z,4.40
2019-04-13T05:52:36.160Z,4.29
2019-04-13T05:53:36.134Z,4.34
2019-04-13T05:54:36.113Z,4.29
2019-04-13T05:55:36.091Z,4.36
2019-04-13T05:56:36.066Z,4.45
2019-04-13T05:57:38.733Z,4.41
2019-04-13T05:58:36.020Z,4.44
2019-04-13T05:59:35.994Z,4.48
2019-04-13T06:00:35.975Z,4.48
2019-04-13T06:01:35.945Z,4.50
2019-04-13T06:02:36.040Z,4.51
2019-04-13T06:03:35.905Z,4.62
2019-04-13T06:04:35.880Z,4.51
2019-04-13T06:05:35.856Z,4.52
2019-04-13T06:06:35.834Z,4.58
2019-04-13T06:07:35.808Z,4.59
2019-04-13T06:08:36.158Z,4.62
2019-04-13T06:09:35.763Z,4.59
2019-04-13T06:10:35.740Z,4.63
2019-04-13T06:11:36.033Z,4.62
2019-04-13T06:12:35.691Z,4.58
2019-04-13T06:13:35.667Z,4.62
2019-04-13T06:14:35.651Z,4.62
2019-04-13T06:15:35.627Z,4.55
2019-04-13T06:16:37.534Z,4.62
2019-04-13T06:17:35.575Z,4.62
2019-04-13T06:18:35.549Z,4.66
2019-04-13T06:19:36.594Z,4.62
2019-04-13T06:20:35.506Z,4.73
2019-04-13T06:21:37.321Z,4.77
2019-04-13T06:22:35.453Z,4.85
2019-04-13T06:23:35.434Z,4.80
2019-04-13T06:24:35.417Z,4.86
2019-04-13T06:25:35.387Z,4.84
2019-04-13T06:26:35.361Z,4.84
2019-04-13T06:27:35.341Z,4.92
2019-04-13T06:28:35.321Z,4.84
2019-04-13T06:29:35.297Z,4.86
2019-04-13T06:30:35.269Z,4.89
2019-04-13T06:31:35.248Z,4.89
2019-04-13T06:32:35.227Z,4.91
2019-04-13T06:33:35.202Z,4.88
2019-04-13T06:34:35.179Z,4.97
2019-04-13T06:35:35.155Z,4.97
2019-04-13T06:36:35.130Z,5.04
2019-04-13T06:37:35.114Z,5.00
2019-04-13T06:38:35.083Z,5.13
2019-04-13T06:39:35.735Z,5.09
2019-04-13T06:40:35.037Z,5.04
2019-04-13T06:41:35.013Z,5.04
2019-04-13T06:42:34.989Z,5.06
2019-04-13T06:43:34.967Z,5.13
2019-04-13T06:44:36.414Z,5.12
2019-04-13T06:45:34.921Z,5.13
2019-04-13T06:46:34.907Z,5.07
2019-04-13T06:47:34.884Z,5.04
2019-04-13T06:48:36.922Z,5.09
2019-04-13T06:49:34.831Z,5.21
2019-04-13T06:50:34.805Z,5.27
2019-04-13T06:51:34.787Z,5.28
2019-04-13T06:52:36.057Z,5.24
2019-04-13T06:53:38.341Z,5.17
2019-04-13T06:54:34.713Z,5.22
2019-04-13T06:55:34.691Z,5.24
2019-04-13T06:56:34.667Z,5.31
2019-04-13T06:57:34.645Z,5.28
2019-04-13T06:58:34.622Z,5.35
2019-04-13T06:59:36.354Z,5.40
2019-04-13T07:00:34.577Z,5.46
2019-04-13T07:01:34.549Z,5.49
2019-04-13T07:02:34.538Z,5.60
2019-04-13T07:03:34.512Z,5.74
2019-04-13T07:04:34.498Z,5.64
2019-04-13T07:05:34.458Z,5.65
2019-04-13T07:06:34.436Z,5.71
2019-04-13T07:07:45.212Z,5.68
2019-04-13T07:08:38.372Z,5.74
2019-04-13T07:09:40.368Z,5.83
2019-04-13T07:10:43.877Z,5.86
2019-04-13T07:11:34.354Z,5.94
2019-04-13T07:12:34.300Z,5.97
2019-04-13T07:13:34.280Z,6.01
2019-04-13T07:14:34.253Z,6.04
2019-04-13T07:15:45.679Z,6.06
2019-04-13T07:16:34.208Z,5.90
2019-04-13T07:17:34.180Z,5.86
2019-04-13T07:18:36.146Z,5.91
2019-04-13T07:19:34.140Z,5.94
2019-04-13T07:20:34.118Z,5.96
2019-04-13T07:21:34.095Z,6.01
2019-04-13T07:22:34.072Z,6.08
2019-04-13T07:23:34.186Z,6.03
2019-04-13T07:24:34.024Z,6.06
2019-04-13T07:25:34.056Z,6.06
2019-04-13T07:26:33.992Z,6.03
2019-04-13T07:27:33.963Z,6.06
2019-04-13T07:28:33.933Z,6.11
2019-04-13T07:29:33.908Z,6.08
2019-04-13T07:30:33.897Z,6.12
2019-04-13T07:31:33.865Z,6.12
2019-04-13T07:32:34.771Z,6.22
2019-04-13T07:33:33.823Z,6.30
2019-04-13T07:34:34.526Z,6.31
2019-04-13T07:35:36.227Z,6.28
2019-04-13T07:36:33.753Z,6.31
2019-04-13T07:37:36.857Z,6.33
2019-04-13T07:38:33.711Z,6.21
2019-04-13T07:39:33.686Z,6.40
2019-04-13T07:40:33.666Z,6.38
2019-04-13T07:41:33.646Z,6.46
2019-04-13T07:42:33.617Z,6.38
2019-04-13T07:43:33.596Z,6.40
2019-04-13T07:44:33.574Z,6.49
2019-04-13T07:45:35.306Z,6.56
2019-04-13T07:46:33.528Z,6.79
2019-04-13T07:47:33.502Z,6.91
2019-04-13T07:48:33.482Z,7.03
2019-04-13T07:49:33.468Z,7.07
2019-04-13T07:50:34.206Z,7.09
2019-04-13T07:51:33.419Z,7.13
2019-04-13T07:52:33.390Z,7.21
2019-04-13T07:53:35.201Z,7.20
2019-04-13T07:54:33.346Z,7.42
2019-04-13T07:55:36.236Z,7.42
2019-04-13T07:56:33.302Z,7.46
2019-04-13T07:57:35.052Z,7.37
2019-04-13T07:58:33.269Z,7.40
2019-04-13T07:59:33.237Z,7.37
2019-04-13T08:00:33.213Z,7.49
2019-04-13T08:01:33.190Z,7.49
2019-04-13T08:02:33.168Z,7.52
2019-04-13T08:03:33.144Z,7.58
2019-04-13T08:04:33.127Z,7.74
2019-04-13T08:05:33.101Z,7.82
2019-04-13T08:06:33.076Z,7.87
2019-04-13T08:07:33.058Z,8.07
2019-04-13T08:08:39.698Z,8.16
2019-04-13T08:09:33.014Z,8.15
2019-04-13T08:10:32.990Z,8.25
2019-04-13T08:11:32.969Z,8.34
2019-04-13T08:12:32.946Z,8.23
2019-04-13T08:13:32.934Z,8.18
2019-04-13T08:14:32.902Z,8.23
2019-04-13T08:15:32.880Z,8.25
2019-04-13T08:16:32.866Z,8.22
2019-04-13T08:17:32.838Z,8.23
2019-04-13T08:18:32.816Z,8.25
2019-04-13T08:19:32.794Z,8.38
2019-04-13T08:20:34.256Z,8.44
2019-04-13T08:21:33.366Z,8.47
2019-04-13T08:22:34.181Z,8.47
2019-04-13T08:23:32.706Z,8.50
2019-04-13T08:24:32.685Z,8.62
2019-04-13T08:25:36.810Z,8.55
2019-04-13T08:26:32.641Z,8.50
2019-04-13T08:27:33.672Z,8.56
2019-04-13T08:28:32.598Z,8.58
2019-04-13T08:29:32.581Z,8.63
2019-04-13T08:30:32.563Z,8.61
2019-04-13T08:31:32.535Z,8.74
2019-04-13T08:32:34.847Z,8.81
2019-04-13T08:33:32.499Z,8.98
2019-04-13T08:34:32.473Z,8.92
2019-04-13T08:35:32.456Z,8.99
2019-04-13T08:36:32.432Z,9.10
2019-04-13T08:37:33.589Z,9.17
2019-04-13T08:38:32.387Z,9.20
2019-04-13T08:39:32.380Z,9.24
2019-04-13T08:40:32.342Z,9.35
2019-04-13T08:41:32.325Z,9.40
2019-04-13T08:42:32.306Z,9.33
2019-04-13T08:43:33.089Z,9.40
2019-04-13T08:44:36.389Z,9.32
2019-04-13T08:45:32.246Z,9.35
2019-04-13T08:46:32.222Z,9.57
2019-04-13T08:47:32.201Z,9.66
2019-04-13T08:48:32.183Z,9.83
2019-04-13T08:49:32.161Z,9.84
2019-04-13T08:50:32.145Z,9.79
2019-04-13T08:51:32.129Z,9.83
2019-04-13T08:52:32.106Z,9.84
2019-04-13T08:53:32.089Z,9.96
2019-04-13T08:54:32.067Z,10.12
2019-04-13T08:55:32.046Z,10.23
2019-04-13T08:56:34.654Z,10.30
2019-04-13T08:57:32.005Z,10.47
2019-04-13T08:58:32.418Z,10.45
2019-04-13T08:59:32.208Z,10.45
2019-04-13T09:00:31.948Z,10.53
2019-04-13T09:01:31.933Z,10.52
2019-04-13T09:02:31.917Z,10.61
2019-04-13T09:03:31.902Z,10.61
2019-04-13T09:04:31.882Z,10.64
2019-04-13T09:05:31.865Z,10.78
2019-04-13T09:06:31.846Z,10.79
2019-04-13T09:07:31.826Z,10.91
2019-04-13T09:08:33.312Z,10.89
2019-04-13T09:09:35.581Z,10.70
2019-04-13T09:10:33.004Z,10.63
2019-04-13T09:11:33.044Z,10.71
2019-04-13T09:12:32.420Z,10.81
2019-04-13T09:13:33.114Z,10.92
2019-04-13T09:14:32.245Z,10.89
2019-04-13T09:15:32.748Z,11.03
2019-04-13T09:16:32.465Z,11.11
2019-04-13T09:17:33.456Z,11.22
2019-04-13T09:18:31.629Z,11.32
2019-04-13T09:19:34.931Z,11.19
2019-04-13T09:20:35.309Z,11.37
2019-04-13T09:21:32.003Z,11.24
2019-04-13T09:22:31.565Z,11.19
2019-04-13T09:23:33.971Z,11.19
2019-04-13T09:24:31.525Z,11.25
2019-04-13T09:25:31.507Z,11.40
2019-04-13T09:26:31.507Z,11.46
2019-04-13T09:27:31.475Z,11.35
2019-04-13T09:28:31.453Z,11.39
2019-04-13T09:29:31.443Z,11.33
2019-04-13T09:30:31.432Z,11.36
2019-04-13T09:31:31.411Z,11.44
2019-04-13T09:32:31.498Z,11.61
2019-04-13T09:33:32.486Z,11.69
2019-04-13T09:34:34.637Z,11.64
2019-04-13T09:35:31.349Z,11.70
2019-04-13T09:36:31.331Z,11.98
2019-04-13T09:37:32.795Z,12.17
2019-04-13T09:38:41.798Z,12.31
2019-04-13T09:39:31.275Z,12.65
2019-04-13T09:40:31.318Z,12.74
2019-04-13T09:41:31.250Z,12.93
2019-04-13T09:42:31.233Z,12.97
2019-04-13T09:43:31.216Z,13.15
2019-04-13T09:44:32.340Z,13.78
2019-04-13T09:45:34.340Z,13.99
2019-04-13T09:46:31.171Z,13.92
2019-04-13T09:47:31.160Z,14.20
2019-04-13T09:48:31.143Z,14.33
2019-04-13T09:49:31.131Z,13.87
2019-04-13T09:50:31.114Z,13.57
2019-04-13T09:51:31.103Z,13.20
2019-04-13T09:52:32.117Z,13.20
2019-04-13T09:53:31.072Z,13.23
2019-04-13T09:54:31.069Z,13.23
2019-04-13T09:55:31.044Z,13.08
2019-04-13T09:56:37.119Z,13.07
2019-04-13T09:57:31.014Z,12.87
2019-04-13T09:58:34.956Z,13.01
2019-04-13T09:59:30.999Z,12.90
2019-04-13T10:00:30.986Z,12.79
2019-04-13T10:01:31.243Z,12.75
2019-04-13T10:02:30.946Z,12.70
2019-04-13T10:03:30.936Z,12.71
2019-04-13T10:04:30.933Z,12.79
2019-04-13T10:05:30.906Z,13.51
2019-04-13T10:06:30.901Z,14.06
2019-04-13T10:07:30.882Z,14.72
2019-04-13T10:08:30.867Z,15.09
2019-04-13T10:09:30.852Z,15.38
2019-04-13T10:10:33.604Z,15.43
2019-04-13T10:11:30.831Z,15.56
2019-04-13T10:12:30.817Z,15.31
2019-04-13T10:13:30.808Z,15.27
2019-04-13T10:14:30.848Z,15.43
2019-04-13T10:15:30.785Z,15.25
2019-04-13T10:16:30.779Z,15.32
2019-04-13T10:17:30.763Z,15.28
2019-04-13T10:18:30.754Z,14.69
2019-04-13T10:19:31.774Z,13.95
2019-04-13T10:20:30.729Z,14.06
2019-04-13T10:21:30.719Z,13.84
2019-04-13T10:22:30.708Z,13.71
2019-04-13T10:23:30.709Z,13.39
2019-04-13T10:24:30.692Z,13.10
2019-04-13T10:25:30.674Z,12.87
2019-04-13T10:26:30.668Z,12.68
2019-04-13T10:27:30.651Z,12.19
2019-04-13T10:28:30.639Z,11.95
2019-04-13T10:29:30.632Z,11.62
2019-04-13T10:30:30.616Z,11.44
2019-04-13T10:31:30.609Z,11.09
2019-04-13T10:32:31.156Z,10.82
2019-04-13T10:33:30.583Z,10.84
2019-04-13T10:34:30.568Z,10.84
2019-04-13T10:35:30.556Z,10.73
2019-04-13T10:36:30.544Z,10.64
2019-04-13T10:37:30.529Z,10.76
2019-04-13T10:38:30.577Z,10.81
2019-04-13T10:39:30.501Z,10.70
2019-04-13T10:40:30.486Z,10.51
2019-04-13T10:41:30.476Z,10.55
2019-04-13T10:42:33.570Z,10.45
2019-04-13T10:43:30.446Z,10.25
2019-04-13T10:44:30.429Z,10.25
2019-04-13T10:45:30.417Z,10.11
2019-04-13T10:46:30.401Z,10.02
2019-04-13T10:47:30.390Z,10.02
2019-04-13T10:48:30.375Z,10.12
2019-04-13T10:49:34.376Z,10.15
2019-04-13T10:50:30.340Z,10.18
2019-04-13T10:51:30.763Z,10.14
2019-04-13T10:52:30.311Z,10.14
2019-04-13T10:53:30.296Z,10.17
2019-04-13T10:54:30.283Z,10.36
2019-04-13T10:55:30.263Z,10.64
2019-04-13T10:56:30.244Z,10.88
2019-04-13T10:57:30.234Z,11.35
2019-04-13T10:58:30.219Z,11.46
2019-04-13T10:59:30.200Z,11.51
2019-04-13T11:00:33.048Z,11.64
2019-04-13T11:01:30.167Z,11.55
2019-04-13T11:02:30.152Z,11.54
2019-04-13T11:03:30.142Z,11.29
2019-04-13T11:04:30.127Z,11.00
2019-04-13T11:05:30.102Z,10.92
2019-04-13T11:06:30.092Z,10.94
2019-04-13T11:07:32.429Z,10.81
2019-04-13T11:08:30.056Z,10.55
2019-04-13T11:09:30.053Z,10.36
2019-04-13T11:10:32.436Z,10.17
2019-04-13T11:11:30.013Z,10.25
2019-04-13T11:12:29.992Z,10.17
2019-04-13T11:13:29.979Z,10.08
2019-04-13T11:14:29.961Z,9.97
2019-04-13T11:15:29.947Z,9.93
2019-04-13T11:16:29.926Z,9.81
2019-04-13T11:17:29.944Z,9.83
2019-04-13T11:18:29.899Z,9.87
2019-04-13T11:19:29.881Z,9.93
2019-04-13T11:20:29.937Z,9.87
2019-04-13T11:21:29.850Z,9.76
2019-04-13T11:22:29.829Z,9.61
2019-04-13T11:23:35.948Z,9.51
2019-04-13T11:24:29.797Z,9.36
2019-04-13T11:25:29.777Z,9.39
2019-04-13T11:26:29.763Z,9.36
2019-04-13T11:27:29.745Z,9.46
2019-04-13T11:28:29.727Z,9.58
2019-04-13T11:29:29.708Z,9.60
2019-04-13T11:30:31.202Z,9.75
2019-04-13T11:31:29.672Z,9.87
2019-04-13T11:32:31.643Z,10.01
2019-04-13T11:33:29.635Z,10.25
2019-04-13T11:34:30.249Z,10.30
2019-04-13T11:35:29.599Z,10.32
2019-04-13T11:36:29.583Z,10.38
2019-04-13T11:37:29.565Z,10.42
2019-04-13T11:38:29.552Z,10.52
2019-04-13T11:39:34.121Z,10.44
2019-04-13T11:40:29.515Z,10.55
2019-04-13T11:41:29.497Z,10.60
2019-04-13T11:42:29.484Z,10.59
2019-04-13T11:43:29.469Z,10.60
2019-04-13T11:44:29.448Z,10.59
2019-04-13T11:45:29.431Z,10.56
2019-04-13T11:46:29.976Z,10.53
2019-04-13T11:47:29.456Z,10.34
2019-04-13T11:48:29.375Z,10.25
2019-04-13T11:49:29.351Z,10.15
2019-04-13T11:50:30.283Z,10.12
2019-04-13T11:51:31.874Z,10.02
2019-04-13T11:52:29.301Z,9.89
2019-04-13T11:53:29.287Z,9.78
2019-04-13T11:54:29.265Z,9.74
2019-04-13T11:55:33.993Z,9.64
2019-04-13T11:56:29.239Z,9.60
2019-04-13T11:57:29.214Z,9.50
2019-04-13T11:58:29.196Z,9.38
2019-04-13T11:59:29.179Z,9.39
2019-04-13T12:00:29.162Z,9.29
2019-04-13T12:01:29.141Z,9.26
2019-04-13T12:02:29.129Z,9.05
2019-04-13T12:03:29.108Z,8.94
2019-04-13T12:04:29.693Z,8.87
2019-04-13T12:05:32.068Z,8.84
2019-04-13T12:06:29.052Z,8.81
2019-04-13T12:07:29.030Z,8.89
2019-04-13T12:08:29.054Z,8.87
2019-04-13T12:09:33.714Z,8.80
2019-04-13T12:10:28.976Z,8.80
2019-04-13T12:11:28.957Z,8.77
2019-04-13T12:12:28.939Z,8.86
2019-04-13T12:13:31.766Z,8.80
2019-04-13T12:14:28.901Z,8.74
2019-04-13T12:15:28.884Z,8.63
2019-04-13T12:16:28.870Z,8.58
2019-04-13T12:17:29.622Z,8.43
2019-04-13T12:18:28.893Z,8.43
2019-04-13T12:19:28.810Z,8.23
2019-04-13T12:20:28.788Z,8.25
2019-04-13T12:21:28.770Z,8.23
2019-04-13T12:22:28.754Z,8.26
2019-04-13T12:23:28.733Z,8.16
2019-04-13T12:24:28.733Z,8.04
2019-04-13T12:25:28.702Z,8.04
2019-04-13T12:26:28.674Z,8.02
2019-04-13T12:27:28.656Z,7.98
2019-04-13T12:28:28.645Z,7.92
2019-04-13T12:29:28.753Z,7.86
2019-04-13T12:30:28.597Z,7.89
2019-04-13T12:31:28.578Z,7.89
2019-04-13T12:32:28.560Z,7.87
2019-04-13T12:33:28.537Z,7.87
2019-04-13T12:34:28.518Z,8.00
2019-04-13T12:35:28.500Z,7.98
2019-04-13T12:36:28.537Z,8.01
2019-04-13T12:37:28.467Z,8.12
2019-04-13T12:38:28.441Z,8.08
2019-04-13T12:39:28.428Z,8.19
2019-04-13T12:40:28.413Z,8.20
2019-04-13T12:41:28.420Z,8.23
2019-04-13T12:42:28.362Z,8.22
2019-04-13T12:43:28.343Z,8.26
2019-04-13T12:44:37.089Z,8.34
2019-04-13T12:45:28.319Z,8.22
2019-04-13T12:46:29.812Z,8.37
2019-04-13T12:47:28.270Z,8.40
2019-04-13T12:48:28.242Z,8.36
2019-04-13T12:49:28.233Z,8.30
2019-04-13T12:50:28.224Z,8.22
2019-04-13T12:51:28.186Z,8.26
2019-04-13T12:52:30.320Z,8.20
2019-04-13T12:53:28.142Z,8.23
2019-04-13T12:54:29.320Z,8.25
2019-04-13T12:55:28.102Z,8.36
2019-04-13T12:56:28.864Z,8.23
2019-04-13T12:57:30.298Z,8.30
2019-04-13T12:58:30.444Z,8.18
2019-04-13T12:59:28.030Z,8.36
2019-04-13T13:00:28.006Z,8.37
2019-04-13T13:01:28.004Z,8.38
2019-04-13T13:02:27.972Z,8.40
2019-04-13T13:03:27.946Z,8.37
2019-04-13T13:04:27.925Z,8.38
2019-04-13T13:05:27.914Z,8.41
2019-04-13T13:06:31.682Z,8.38
2019-04-13T13:07:27.868Z,8.40
2019-04-13T13:08:27.849Z,8.48
2019-04-13T13:09:27.830Z,8.58
2019-04-13T13:10:27.823Z,8.65
2019-04-13T13:11:27.801Z,8.74
2019-04-13T13:12:27.764Z,8.81
2019-04-13T13:13:27.756Z,8.84